sensor_id;sensor_type;location;lat;lon;timestamp;temperature;humidity
31207;DHT22;17834;52.992;8.856;2024-02-28T00:01:51;0.30;99.90
31207;DHT22;17834;52.992;8.856;2024-02-28T00:04:17;0.30;99.90
31207;DHT22;17834;52.992;8.856;2024-02-28T00:06:43;0.30;99.90
31207;DHT22;17834;52.992;8.856;2024-02-28T00:09:10;0.30;99.90
31207;DHT22;17834;52.992;8.856;2024-02-28T00:11:36;0.40;99.90
31207;DHT22;17834;52.992;8.856;2024-02-28T00:14:01;0.50;99.90
31207;DHT22;17834;52.992;8.856;2024-02-28T00:16:27;0.60;99.90
31207;DHT22;17834;52.992;8.856;2024-02-28T00:18:53;0.60;99.90
31207;DHT22;17834;52.992;8.856;2024-02-28T00:21:18;0.70;99.90
31207;DHT22;17834;52.992;8.856;2024-02-28T00:23:44;0.70;99.90
31207;DHT22;17834;52.992;8.856;2024-02-28T00:26:12;0.80;99.90
31207;DHT22;17834;52.992;8.856;2024-02-28T00:28:37;0.80;99.90
31207;DHT22;17834;52.992;8.856;2024-02-28T00:31:03;0.80;99.90
31207;DHT22;17834;52.992;8.856;2024-02-28T00:33:28;0.90;99.90
31207;DHT22;17834;52.992;8.856;2024-02-28T00:35:53;0.90;99.90
31207;DHT22;17834;52.992;8.856;2024-02-28T00:38:19;0.90;99.90
31207;DHT22;17834;52.992;8.856;2024-02-28T00:40:44;0.90;99.90
31207;DHT22;17834;52.992;8.856;2024-02-28T00:43:10;1.00;99.90
31207;DHT22;17834;52.992;8.856;2024-02-28T00:45:35;1.00;99.90
31207;DHT22;17834;52.992;8.856;2024-02-28T00:48:01;1.00;99.90
31207;DHT22;17834;52.992;8.856;2024-02-28T00:50:26;1.00;99.90
31207;DHT22;17834;52.992;8.856;2024-02-28T00:52:52;0.90;99.90
31207;DHT22;17834;52.992;8.856;2024-02-28T00:55:17;0.80;99.90
31207;DHT22;17834;52.992;8.856;2024-02-28T00:57:44;0.70;99.90
31207;DHT22;17834;52.992;8.856;2024-02-28T01:00:10;0.60;99.90
31207;DHT22;17834;52.992;8.856;2024-02-28T01:02:35;0.50;99.90
31207;DHT22;17834;52.992;8.856;2024-02-28T01:05:01;0.40;99.90
31207;DHT22;17834;52.992;8.856;2024-02-28T01:07:26;0.50;99.90
31207;DHT22;17834;52.992;8.856;2024-02-28T01:09:52;0.50;99.90
31207;DHT22;17834;52.992;8.856;2024-02-28T01:12:18;0.60;99.90
31207;DHT22;17834;52.992;8.856;2024-02-28T01:14:43;0.50;99.90
31207;DHT22;17834;52.992;8.856;2024-02-28T01:17:09;0.50;99.90
31207;DHT22;17834;52.992;8.856;2024-02-28T01:19:34;0.40;99.90
31207;DHT22;17834;52.992;8.856;2024-02-28T01:22:00;0.30;99.90
31207;DHT22;17834;52.992;8.856;2024-02-28T01:24:25;0.20;99.90
31207;DHT22;17834;52.992;8.856;2024-02-28T01:26:51;0.20;99.90
31207;DHT22;17834;52.992;8.856;2024-02-28T01:29:16;0.10;99.90
31207;DHT22;17834;52.992;8.856;2024-02-28T01:31:42;0.00;99.90
31207;DHT22;17834;52.992;8.856;2024-02-28T01:34:07;0.00;99.90
31207;DHT22;17834;52.992;8.856;2024-02-28T01:36:33;-0.10;99.90
31207;DHT22;17834;52.992;8.856;2024-02-28T01:38:59;-0.10;99.90
31207;DHT22;17834;52.992;8.856;2024-02-28T01:41:24;-0.20;99.90
31207;DHT22;17834;52.992;8.856;2024-02-28T01:43:50;-0.30;99.90
31207;DHT22;17834;52.992;8.856;2024-02-28T01:46:26;-0.30;99.90
31207;DHT22;17834;52.992;8.856;2024-02-28T01:48:53;-0.40;99.90
31207;DHT22;17834;52.992;8.856;2024-02-28T01:51:20;-0.40;99.90
31207;DHT22;17834;52.992;8.856;2024-02-28T01:53:47;-0.50;99.90
31207;DHT22;17834;52.992;8.856;2024-02-28T01:56:14;-0.40;99.90
31207;DHT22;17834;52.992;8.856;2024-02-28T01:58:43;-0.60;99.90
31207;DHT22;17834;52.992;8.856;2024-02-28T02:01:11;-0.60;99.90
31207;DHT22;17834;52.992;8.856;2024-02-28T02:03:36;-0.60;99.90
31207;DHT22;17834;52.992;8.856;2024-02-28T02:06:03;-0.60;99.90
31207;DHT22;17834;52.992;8.856;2024-02-28T02:08:29;-0.60;99.90
31207;DHT22;17834;52.992;8.856;2024-02-28T02:10:54;-0.70;99.90
31207;DHT22;17834;52.992;8.856;2024-02-28T02:13:20;-0.70;99.90
31207;DHT22;17834;52.992;8.856;2024-02-28T02:15:45;-0.70;99.90
31207;DHT22;17834;52.992;8.856;2024-02-28T02:18:11;-0.70;99.90
31207;DHT22;17834;52.992;8.856;2024-02-28T02:20:38;-0.80;99.90
31207;DHT22;17834;52.992;8.856;2024-02-28T02:23:08;-0.80;99.90
31207;DHT22;17834;52.992;8.856;2024-02-28T02:25:33;-0.80;99.90
31207;DHT22;17834;52.992;8.856;2024-02-28T02:27:59;-0.90;99.90
31207;DHT22;17834;52.992;8.856;2024-02-28T02:30:24;-0.90;99.90
31207;DHT22;17834;52.992;8.856;2024-02-28T02:32:50;-0.90;99.90
31207;DHT22;17834;52.992;8.856;2024-02-28T02:35:15;-0.90;99.90
31207;DHT22;17834;52.992;8.856;2024-02-28T02:37:44;-0.90;99.90
31207;DHT22;17834;52.992;8.856;2024-02-28T02:40:15;-0.90;99.90
31207;DHT22;17834;52.992;8.856;2024-02-28T02:42:40;-0.90;99.90
31207;DHT22;17834;52.992;8.856;2024-02-28T02:45:06;-0.90;99.90
31207;DHT22;17834;52.992;8.856;2024-02-28T02:47:31;-0.90;99.90
31207;DHT22;17834;52.992;8.856;2024-02-28T02:49:57;-0.90;99.90
31207;DHT22;17834;52.992;8.856;2024-02-28T02:52:23;-0.80;99.90
31207;DHT22;17834;52.992;8.856;2024-02-28T02:54:48;-0.70;99.90
31207;DHT22;17834;52.992;8.856;2024-02-28T02:57:13;-0.50;99.90
31207;DHT22;17834;52.992;8.856;2024-02-28T02:59:39;-0.40;99.90
31207;DHT22;17834;52.992;8.856;2024-02-28T03:02:04;-0.20;99.90
31207;DHT22;17834;52.992;8.856;2024-02-28T03:04:30;-0.10;99.90
31207;DHT22;17834;52.992;8.856;2024-02-28T03:06:55;0.10;99.90
31207;DHT22;17834;52.992;8.856;2024-02-28T03:09:21;0.20;99.90
31207;DHT22;17834;52.992;8.856;2024-02-28T03:11:46;0.30;99.90
31207;DHT22;17834;52.992;8.856;2024-02-28T03:14:12;0.50;99.90
31207;DHT22;17834;52.992;8.856;2024-02-28T03:16:44;0.60;99.90
31207;DHT22;17834;52.992;8.856;2024-02-28T03:19:10;0.70;99.90
31207;DHT22;17834;52.992;8.856;2024-02-28T03:21:36;0.80;99.90
31207;DHT22;17834;52.992;8.856;2024-02-28T03:24:02;0.90;99.90
31207;DHT22;17834;52.992;8.856;2024-02-28T03:26:27;0.90;99.90
31207;DHT22;17834;52.992;8.856;2024-02-28T03:28:53;1.00;99.90
31207;DHT22;17834;52.992;8.856;2024-02-28T03:31:18;1.10;99.90
31207;DHT22;17834;52.992;8.856;2024-02-28T03:33:44;1.10;99.90
31207;DHT22;17834;52.992;8.856;2024-02-28T03:36:09;1.10;99.90
31207;DHT22;17834;52.992;8.856;2024-02-28T03:38:35;1.20;99.90
31207;DHT22;17834;52.992;8.856;2024-02-28T03:41:02;1.20;99.90
31207;DHT22;17834;52.992;8.856;2024-02-28T03:43:27;1.20;99.90
31207;DHT22;17834;52.992;8.856;2024-02-28T03:45:53;1.30;99.90
31207;DHT22;17834;52.992;8.856;2024-02-28T03:48:18;1.30;99.90
31207;DHT22;17834;52.992;8.856;2024-02-28T03:50:44;1.30;99.90
31207;DHT22;17834;52.992;8.856;2024-02-28T03:53:09;1.30;99.90
31207;DHT22;17834;52.992;8.856;2024-02-28T03:55:35;1.40;99.90
31207;DHT22;17834;52.992;8.856;2024-02-28T03:58:00;1.40;99.90
31207;DHT22;17834;52.992;8.856;2024-02-28T04:00:26;1.40;99.90
31207;DHT22;17834;52.992;8.856;2024-02-28T04:02:51;1.40;99.90
31207;DHT22;17834;52.992;8.856;2024-02-28T04:05:17;1.50;99.90
31207;DHT22;17834;52.992;8.856;2024-02-28T04:07:42;1.50;99.90
31207;DHT22;17834;52.992;8.856;2024-02-28T04:10:08;1.40;99.90
31207;DHT22;17834;52.992;8.856;2024-02-28T04:12:36;1.40;99.90
31207;DHT22;17834;52.992;8.856;2024-02-28T04:15:02;1.40;99.90
31207;DHT22;17834;52.992;8.856;2024-02-28T04:17:28;1.40;99.90
31207;DHT22;17834;52.992;8.856;2024-02-28T04:19:53;1.40;99.90
31207;DHT22;17834;52.992;8.856;2024-02-28T04:22:19;1.40;99.90
31207;DHT22;17834;52.992;8.856;2024-02-28T04:24:44;1.40;99.90
31207;DHT22;17834;52.992;8.856;2024-02-28T04:27:10;1.30;99.90
31207;DHT22;17834;52.992;8.856;2024-02-28T04:29:37;1.30;99.90
31207;DHT22;17834;52.992;8.856;2024-02-28T04:32:03;1.20;99.90
31207;DHT22;17834;52.992;8.856;2024-02-28T04:34:28;1.10;99.90
31207;DHT22;17834;52.992;8.856;2024-02-28T04:36:54;1.00;99.90
31207;DHT22;17834;52.992;8.856;2024-02-28T04:39:19;0.90;99.90
31207;DHT22;17834;52.992;8.856;2024-02-28T04:41:45;0.80;99.90
31207;DHT22;17834;52.992;8.856;2024-02-28T04:44:10;0.80;99.90
31207;DHT22;17834;52.992;8.856;2024-02-28T04:46:37;0.80;99.90
31207;DHT22;17834;52.992;8.856;2024-02-28T04:49:02;0.70;99.90
31207;DHT22;17834;52.992;8.856;2024-02-28T04:51:28;0.60;99.90
31207;DHT22;17834;52.992;8.856;2024-02-28T04:53:53;0.60;99.90
31207;DHT22;17834;52.992;8.856;2024-02-28T04:56:19;0.50;99.90
31207;DHT22;17834;52.992;8.856;2024-02-28T04:58:44;0.50;99.90
31207;DHT22;17834;52.992;8.856;2024-02-28T05:01:10;0.40;99.90
31207;DHT22;17834;52.992;8.856;2024-02-28T05:03:35;0.40;99.90
31207;DHT22;17834;52.992;8.856;2024-02-28T05:06:01;0.40;99.90
31207;DHT22;17834;52.992;8.856;2024-02-28T05:08:27;0.40;99.90
31207;DHT22;17834;52.992;8.856;2024-02-28T05:10:54;0.50;99.90
31207;DHT22;17834;52.992;8.856;2024-02-28T05:13:19;0.50;99.90
31207;DHT22;17834;52.992;8.856;2024-02-28T05:15:45;0.60;99.90
31207;DHT22;17834;52.992;8.856;2024-02-28T05:18:10;0.60;99.90
31207;DHT22;17834;52.992;8.856;2024-02-28T05:20:36;0.70;99.90
31207;DHT22;17834;52.992;8.856;2024-02-28T05:23:01;0.90;99.90
31207;DHT22;17834;52.992;8.856;2024-02-28T05:25:27;0.90;99.90
31207;DHT22;17834;52.992;8.856;2024-02-28T05:27:52;1.00;99.90
31207;DHT22;17834;52.992;8.856;2024-02-28T05:30:18;1.10;99.90
31207;DHT22;17834;52.992;8.856;2024-02-28T05:32:44;1.10;99.90
31207;DHT22;17834;52.992;8.856;2024-02-28T05:35:10;1.20;99.90
31207;DHT22;17834;52.992;8.856;2024-02-28T05:37:37;1.20;99.90
31207;DHT22;17834;52.992;8.856;2024-02-28T05:40:02;1.20;99.90
31207;DHT22;17834;52.992;8.856;2024-02-28T05:42:28;1.30;99.90
31207;DHT22;17834;52.992;8.856;2024-02-28T05:44:54;1.30;99.90
31207;DHT22;17834;52.992;8.856;2024-02-28T05:47:19;1.30;99.90
31207;DHT22;17834;52.992;8.856;2024-02-28T05:49:45;1.30;99.90
31207;DHT22;17834;52.992;8.856;2024-02-28T05:52:11;1.30;99.90
31207;DHT22;17834;52.992;8.856;2024-02-28T05:54:36;1.40;99.90
31207;DHT22;17834;52.992;8.856;2024-02-28T05:57:02;1.40;99.90
31207;DHT22;17834;52.992;8.856;2024-02-28T05:59:27;1.40;99.90
31207;DHT22;17834;52.992;8.856;2024-02-28T06:01:53;1.40;99.90
31207;DHT22;17834;52.992;8.856;2024-02-28T06:04:18;1.40;99.90
31207;DHT22;17834;52.992;8.856;2024-02-28T06:06:44;1.40;99.90
31207;DHT22;17834;52.992;8.856;2024-02-28T06:09:10;1.40;99.90
31207;DHT22;17834;52.992;8.856;2024-02-28T06:11:36;1.40;99.90
31207;DHT22;17834;52.992;8.856;2024-02-28T06:14:01;1.40;99.90
31207;DHT22;17834;52.992;8.856;2024-02-28T06:16:29;1.50;99.90
31207;DHT22;17834;52.992;8.856;2024-02-28T06:18:55;1.50;99.90
31207;DHT22;17834;52.992;8.856;2024-02-28T06:21:22;1.50;99.90
31207;DHT22;17834;52.992;8.856;2024-02-28T06:23:48;1.50;99.90
31207;DHT22;17834;52.992;8.856;2024-02-28T06:26:13;1.50;99.90
31207;DHT22;17834;52.992;8.856;2024-02-28T06:28:45;1.50;99.90
31207;DHT22;17834;52.992;8.856;2024-02-28T06:31:14;1.60;99.90
31207;DHT22;17834;52.992;8.856;2024-02-28T06:33:40;1.50;99.90
31207;DHT22;17834;52.992;8.856;2024-02-28T06:36:06;1.60;99.90
31207;DHT22;17834;52.992;8.856;2024-02-28T06:38:31;1.60;99.90
31207;DHT22;17834;52.992;8.856;2024-02-28T06:40:56;1.60;99.90
31207;DHT22;17834;52.992;8.856;2024-02-28T06:43:22;1.60;99.90
31207;DHT22;17834;52.992;8.856;2024-02-28T06:45:48;1.70;99.90
31207;DHT22;17834;52.992;8.856;2024-02-28T06:48:13;1.70;99.90
31207;DHT22;17834;52.992;8.856;2024-02-28T06:50:39;1.70;99.90
31207;DHT22;17834;52.992;8.856;2024-02-28T06:53:04;1.80;99.90
31207;DHT22;17834;52.992;8.856;2024-02-28T06:55:30;1.80;99.90
31207;DHT22;17834;52.992;8.856;2024-02-28T06:57:55;1.80;99.90
31207;DHT22;17834;52.992;8.856;2024-02-28T07:00:22;1.80;99.90
31207;DHT22;17834;52.992;8.856;2024-02-28T07:02:47;1.80;99.90
31207;DHT22;17834;52.992;8.856;2024-02-28T07:05:13;1.90;99.90
31207;DHT22;17834;52.992;8.856;2024-02-28T07:07:38;2.00;99.90
31207;DHT22;17834;52.992;8.856;2024-02-28T07:10:04;2.00;99.90
31207;DHT22;17834;52.992;8.856;2024-02-28T07:12:30;2.10;99.90
31207;DHT22;17834;52.992;8.856;2024-02-28T07:14:56;2.10;99.90
31207;DHT22;17834;52.992;8.856;2024-02-28T07:17:21;2.20;99.90
31207;DHT22;17834;52.992;8.856;2024-02-28T07:19:47;2.30;99.90
31207;DHT22;17834;52.992;8.856;2024-02-28T07:22:13;2.40;99.90
31207;DHT22;17834;52.992;8.856;2024-02-28T07:24:39;2.40;99.90
31207;DHT22;17834;52.992;8.856;2024-02-28T07:27:04;2.40;99.90
31207;DHT22;17834;52.992;8.856;2024-02-28T07:29:30;2.50;99.90
31207;DHT22;17834;52.992;8.856;2024-02-28T07:31:55;2.50;99.90
31207;DHT22;17834;52.992;8.856;2024-02-28T07:34:21;2.50;99.90
31207;DHT22;17834;52.992;8.856;2024-02-28T07:36:46;2.50;99.90
31207;DHT22;17834;52.992;8.856;2024-02-28T07:39:12;2.50;99.90
31207;DHT22;17834;52.992;8.856;2024-02-28T07:41:38;2.50;99.90
31207;DHT22;17834;52.992;8.856;2024-02-28T07:44:04;2.50;99.90
31207;DHT22;17834;52.992;8.856;2024-02-28T07:46:30;2.50;99.90
31207;DHT22;17834;52.992;8.856;2024-02-28T07:48:56;2.60;99.90
31207;DHT22;17834;52.992;8.856;2024-02-28T07:51:21;2.70;99.90
31207;DHT22;17834;52.992;8.856;2024-02-28T07:53:47;2.80;99.90
31207;DHT22;17834;52.992;8.856;2024-02-28T07:56:17;3.10;99.90
31207;DHT22;17834;52.992;8.856;2024-02-28T07:58:43;3.40;99.90
31207;DHT22;17834;52.992;8.856;2024-02-28T08:01:08;3.50;99.90
31207;DHT22;17834;52.992;8.856;2024-02-28T08:03:34;3.80;99.90
31207;DHT22;17834;52.992;8.856;2024-02-28T08:05:59;4.10;99.90
31207;DHT22;17834;52.992;8.856;2024-02-28T08:08:24;4.20;99.90
31207;DHT22;17834;52.992;8.856;2024-02-28T08:10:50;4.20;99.90
31207;DHT22;17834;52.992;8.856;2024-02-28T08:13:18;4.10;99.90
31207;DHT22;17834;52.992;8.856;2024-02-28T08:15:44;4.00;99.90
31207;DHT22;17834;52.992;8.856;2024-02-28T08:18:09;4.00;99.90
31207;DHT22;17834;52.992;8.856;2024-02-28T08:20:37;4.00;99.90
31207;DHT22;17834;52.992;8.856;2024-02-28T08:23:06;4.00;99.90
31207;DHT22;17834;52.992;8.856;2024-02-28T08:25:32;4.00;99.90
31207;DHT22;17834;52.992;8.856;2024-02-28T08:27:57;4.00;99.90
31207;DHT22;17834;52.992;8.856;2024-02-28T08:30:23;4.00;99.90
31207;DHT22;17834;52.992;8.856;2024-02-28T08:32:49;4.00;99.90
31207;DHT22;17834;52.992;8.856;2024-02-28T08:35:14;4.00;99.90
31207;DHT22;17834;52.992;8.856;2024-02-28T08:37:40;4.10;99.90
31207;DHT22;17834;52.992;8.856;2024-02-28T08:40:06;4.20;99.90
31207;DHT22;17834;52.992;8.856;2024-02-28T08:42:32;4.30;99.90
31207;DHT22;17834;52.992;8.856;2024-02-28T08:44:58;4.30;99.90
31207;DHT22;17834;52.992;8.856;2024-02-28T08:47:25;4.40;99.90
31207;DHT22;17834;52.992;8.856;2024-02-28T08:49:52;4.50;99.90
31207;DHT22;17834;52.992;8.856;2024-02-28T08:52:19;4.50;99.90
31207;DHT22;17834;52.992;8.856;2024-02-28T08:54:44;4.50;99.90
31207;DHT22;17834;52.992;8.856;2024-02-28T08:57:10;4.60;99.90
31207;DHT22;17834;52.992;8.856;2024-02-28T08:59:35;4.70;99.90
31207;DHT22;17834;52.992;8.856;2024-02-28T09:02:01;4.70;99.90
31207;DHT22;17834;52.992;8.856;2024-02-28T09:04:26;4.80;99.90
31207;DHT22;17834;52.992;8.856;2024-02-28T09:06:52;4.90;99.90
31207;DHT22;17834;52.992;8.856;2024-02-28T09:09:19;5.00;99.90
31207;DHT22;17834;52.992;8.856;2024-02-28T09:11:44;4.90;99.90
31207;DHT22;17834;52.992;8.856;2024-02-28T09:14:10;4.90;99.90
31207;DHT22;17834;52.992;8.856;2024-02-28T09:16:35;5.00;99.90
31207;DHT22;17834;52.992;8.856;2024-02-28T09:19:01;5.00;99.90
31207;DHT22;17834;52.992;8.856;2024-02-28T09:21:26;5.20;99.90
31207;DHT22;17834;52.992;8.856;2024-02-28T09:23:52;5.40;99.90
31207;DHT22;17834;52.992;8.856;2024-02-28T09:26:17;5.70;99.90
31207;DHT22;17834;52.992;8.856;2024-02-28T09:28:43;5.90;99.90
31207;DHT22;17834;52.992;8.856;2024-02-28T09:31:08;6.00;99.90
31207;DHT22;17834;52.992;8.856;2024-02-28T09:33:34;6.10;99.90
31207;DHT22;17834;52.992;8.856;2024-02-28T09:36:02;6.20;99.90
31207;DHT22;17834;52.992;8.856;2024-02-28T09:38:28;6.30;99.90
31207;DHT22;17834;52.992;8.856;2024-02-28T09:40:54;6.30;99.90
31207;DHT22;17834;52.992;8.856;2024-02-28T09:43:31;6.50;99.90
31207;DHT22;17834;52.992;8.856;2024-02-28T09:46:03;6.60;99.90
31207;DHT22;17834;52.992;8.856;2024-02-28T09:48:29;6.80;99.90
31207;DHT22;17834;52.992;8.856;2024-02-28T09:50:59;7.00;99.90
31207;DHT22;17834;52.992;8.856;2024-02-28T09:53:26;7.00;99.90
31207;DHT22;17834;52.992;8.856;2024-02-28T09:55:51;7.10;99.90
31207;DHT22;17834;52.992;8.856;2024-02-28T09:58:18;7.10;99.90
31207;DHT22;17834;52.992;8.856;2024-02-28T10:00:44;6.90;99.90
31207;DHT22;17834;52.992;8.856;2024-02-28T10:03:16;6.90;99.90
31207;DHT22;17834;52.992;8.856;2024-02-28T10:05:44;6.90;99.90
31207;DHT22;17834;52.992;8.856;2024-02-28T10:08:10;7.00;99.90
31207;DHT22;17834;52.992;8.856;2024-02-28T10:10:37;7.00;99.90
31207;DHT22;17834;52.992;8.856;2024-02-28T10:13:03;6.90;99.90
31207;DHT22;17834;52.992;8.856;2024-02-28T10:15:30;6.90;99.90
31207;DHT22;17834;52.992;8.856;2024-02-28T10:17:56;6.90;99.90
31207;DHT22;17834;52.992;8.856;2024-02-28T10:20:21;6.90;99.90
31207;DHT22;17834;52.992;8.856;2024-02-28T10:22:47;7.00;99.90
31207;DHT22;17834;52.992;8.856;2024-02-28T10:25:13;7.10;99.90
31207;DHT22;17834;52.992;8.856;2024-02-28T10:27:40;7.20;99.90
31207;DHT22;17834;52.992;8.856;2024-02-28T10:30:06;7.20;99.90
31207;DHT22;17834;52.992;8.856;2024-02-28T10:32:32;7.30;99.90
31207;DHT22;17834;52.992;8.856;2024-02-28T10:35:00;7.20;99.90
31207;DHT22;17834;52.992;8.856;2024-02-28T10:37:31;7.20;99.90
31207;DHT22;17834;52.992;8.856;2024-02-28T10:39:58;7.10;99.90
31207;DHT22;17834;52.992;8.856;2024-02-28T10:42:26;7.00;99.90
31207;DHT22;17834;52.992;8.856;2024-02-28T10:44:52;6.90;99.90
31207;DHT22;17834;52.992;8.856;2024-02-28T10:47:19;6.90;99.90
31207;DHT22;17834;52.992;8.856;2024-02-28T10:49:45;6.90;99.90
31207;DHT22;17834;52.992;8.856;2024-02-28T10:52:11;7.00;99.90
31207;DHT22;17834;52.992;8.856;2024-02-28T10:54:39;7.00;99.90
31207;DHT22;17834;52.992;8.856;2024-02-28T10:57:07;7.10;99.90
31207;DHT22;17834;52.992;8.856;2024-02-28T10:59:34;7.10;99.90
31207;DHT22;17834;52.992;8.856;2024-02-28T11:02:00;7.10;99.90
31207;DHT22;17834;52.992;8.856;2024-02-28T11:04:27;7.00;99.90
31207;DHT22;17834;52.992;8.856;2024-02-28T11:06:56;7.00;99.90
31207;DHT22;17834;52.992;8.856;2024-02-28T11:09:23;7.10;99.90
31207;DHT22;17834;52.992;8.856;2024-02-28T11:11:49;7.10;99.90
31207;DHT22;17834;52.992;8.856;2024-02-28T11:14:16;7.20;99.90
31207;DHT22;17834;52.992;8.856;2024-02-28T11:16:42;7.40;99.90
31207;DHT22;17834;52.992;8.856;2024-02-28T11:19:19;7.60;99.90
31207;DHT22;17834;52.992;8.856;2024-02-28T11:21:45;7.70;99.90
31207;DHT22;17834;52.992;8.856;2024-02-28T11:24:16;7.70;99.90
31207;DHT22;17834;52.992;8.856;2024-02-28T11:26:42;7.70;99.90
31207;DHT22;17834;52.992;8.856;2024-02-28T11:29:08;7.70;99.90
31207;DHT22;17834;52.992;8.856;2024-02-28T11:31:34;7.60;99.90
31207;DHT22;17834;52.992;8.856;2024-02-28T11:33:59;7.60;99.90
31207;DHT22;17834;52.992;8.856;2024-02-28T11:36:25;7.60;99.90
31207;DHT22;17834;52.992;8.856;2024-02-28T11:38:50;7.40;99.90
31207;DHT22;17834;52.992;8.856;2024-02-28T11:41:25;7.30;99.90
31207;DHT22;17834;52.992;8.856;2024-02-28T11:43:51;7.20;99.90
31207;DHT22;17834;52.992;8.856;2024-02-28T11:46:16;7.10;99.90
31207;DHT22;17834;52.992;8.856;2024-02-28T11:48:43;7.00;99.90
31207;DHT22;17834;52.992;8.856;2024-02-28T11:51:08;7.00;99.90
31207;DHT22;17834;52.992;8.856;2024-02-28T11:53:34;6.90;99.90
31207;DHT22;17834;52.992;8.856;2024-02-28T11:56:00;6.90;99.90
31207;DHT22;17834;52.992;8.856;2024-02-28T11:58:25;6.90;99.90
31207;DHT22;17834;52.992;8.856;2024-02-28T12:00:52;7.00;99.90
31207;DHT22;17834;52.992;8.856;2024-02-28T12:03:24;7.00;99.90
31207;DHT22;17834;52.992;8.856;2024-02-28T12:05:51;7.10;99.90
31207;DHT22;17834;52.992;8.856;2024-02-28T12:08:20;7.20;99.90
31207;DHT22;17834;52.992;8.856;2024-02-28T12:10:46;7.30;99.90
31207;DHT22;17834;52.992;8.856;2024-02-28T12:13:18;7.50;99.90
31207;DHT22;17834;52.992;8.856;2024-02-28T12:15:46;7.50;99.90
31207;DHT22;17834;52.992;8.856;2024-02-28T12:18:14;7.60;99.90
31207;DHT22;17834;52.992;8.856;2024-02-28T12:20:40;7.70;99.90
31207;DHT22;17834;52.992;8.856;2024-02-28T12:23:06;7.90;99.90
31207;DHT22;17834;52.992;8.856;2024-02-28T12:25:33;8.20;99.90
31207;DHT22;17834;52.992;8.856;2024-02-28T12:28:00;8.40;99.90
31207;DHT22;17834;52.992;8.856;2024-02-28T12:30:26;8.60;99.90
31207;DHT22;17834;52.992;8.856;2024-02-28T12:32:51;8.80;99.90
31207;DHT22;17834;52.992;8.856;2024-02-28T12:35:17;8.80;99.90
31207;DHT22;17834;52.992;8.856;2024-02-28T12:37:42;9.00;99.90
31207;DHT22;17834;52.992;8.856;2024-02-28T12:40:08;9.00;99.90
31207;DHT22;17834;52.992;8.856;2024-02-28T12:42:34;9.20;99.90
31207;DHT22;17834;52.992;8.856;2024-02-28T12:44:59;9.30;99.90
31207;DHT22;17834;52.992;8.856;2024-02-28T12:47:25;9.40;99.90
31207;DHT22;17834;52.992;8.856;2024-02-28T12:49:51;9.50;99.90
31207;DHT22;17834;52.992;8.856;2024-02-28T12:52:16;9.60;99.90
31207;DHT22;17834;52.992;8.856;2024-02-28T12:54:43;9.70;99.90
31207;DHT22;17834;52.992;8.856;2024-02-28T12:57:09;9.80;99.90
31207;DHT22;17834;52.992;8.856;2024-02-28T12:59:34;9.90;99.90
31207;DHT22;17834;52.992;8.856;2024-02-28T13:02:00;10.00;99.90
31207;DHT22;17834;52.992;8.856;2024-02-28T13:04:25;10.10;99.90
31207;DHT22;17834;52.992;8.856;2024-02-28T13:06:51;10.10;99.90
31207;DHT22;17834;52.992;8.856;2024-02-28T13:09:18;10.00;99.90
31207;DHT22;17834;52.992;8.856;2024-02-28T13:11:44;10.10;99.90
31207;DHT22;17834;52.992;8.856;2024-02-28T13:14:10;10.00;99.90
31207;DHT22;17834;52.992;8.856;2024-02-28T13:16:36;10.00;99.90
31207;DHT22;17834;52.992;8.856;2024-02-28T13:19:01;9.90;99.90
31207;DHT22;17834;52.992;8.856;2024-02-28T13:21:27;9.90;99.90
31207;DHT22;17834;52.992;8.856;2024-02-28T13:23:53;9.80;99.90
31207;DHT22;17834;52.992;8.856;2024-02-28T13:26:18;9.60;99.90
31207;DHT22;17834;52.992;8.856;2024-02-28T13:28:44;9.50;99.90
31207;DHT22;17834;52.992;8.856;2024-02-28T13:31:10;9.40;99.90
31207;DHT22;17834;52.992;8.856;2024-02-28T13:33:35;9.20;99.90
31207;DHT22;17834;52.992;8.856;2024-02-28T13:36:03;9.00;99.90
31207;DHT22;17834;52.992;8.856;2024-02-28T13:38:28;8.90;99.90
31207;DHT22;17834;52.992;8.856;2024-02-28T13:40:54;8.80;99.90
31207;DHT22;17834;52.992;8.856;2024-02-28T13:43:20;8.70;99.90
31207;DHT22;17834;52.992;8.856;2024-02-28T13:45:49;8.60;99.90
31207;DHT22;17834;52.992;8.856;2024-02-28T13:48:17;8.60;99.90
31207;DHT22;17834;52.992;8.856;2024-02-28T13:50:46;8.50;99.90
31207;DHT22;17834;52.992;8.856;2024-02-28T13:53:13;8.50;99.90
31207;DHT22;17834;52.992;8.856;2024-02-28T13:55:40;8.50;99.90
31207;DHT22;17834;52.992;8.856;2024-02-28T13:58:06;8.50;99.90
31207;DHT22;17834;52.992;8.856;2024-02-28T14:00:32;8.50;99.90
31207;DHT22;17834;52.992;8.856;2024-02-28T14:03:00;8.50;99.90
31207;DHT22;17834;52.992;8.856;2024-02-28T14:05:25;8.50;99.90
31207;DHT22;17834;52.992;8.856;2024-02-28T14:07:50;8.50;99.90
31207;DHT22;17834;52.992;8.856;2024-02-28T14:10:16;8.50;99.90
31207;DHT22;17834;52.992;8.856;2024-02-28T14:12:41;8.40;99.90
31207;DHT22;17834;52.992;8.856;2024-02-28T14:15:07;8.40;99.90
31207;DHT22;17834;52.992;8.856;2024-02-28T14:17:34;8.40;99.90
31207;DHT22;17834;52.992;8.856;2024-02-28T14:19:59;8.50;99.90
31207;DHT22;17834;52.992;8.856;2024-02-28T14:22:25;8.60;99.90
31207;DHT22;17834;52.992;8.856;2024-02-28T14:24:51;8.70;99.90
31207;DHT22;17834;52.992;8.856;2024-02-28T14:27:16;8.70;99.90
31207;DHT22;17834;52.992;8.856;2024-02-28T14:29:42;8.90;99.90
31207;DHT22;17834;52.992;8.856;2024-02-28T14:32:07;9.00;99.90
31207;DHT22;17834;52.992;8.856;2024-02-28T14:34:33;9.00;99.90
31207;DHT22;17834;52.992;8.856;2024-02-28T14:36:59;9.10;99.90
31207;DHT22;17834;52.992;8.856;2024-02-28T14:39:24;9.10;99.90
31207;DHT22;17834;52.992;8.856;2024-02-28T14:41:50;9.10;99.90
31207;DHT22;17834;52.992;8.856;2024-02-28T14:44:15;9.10;99.90
31207;DHT22;17834;52.992;8.856;2024-02-28T14:46:42;9.10;99.90
31207;DHT22;17834;52.992;8.856;2024-02-28T14:49:09;9.10;99.90
31207;DHT22;17834;52.992;8.856;2024-02-28T14:51:34;9.00;99.90
31207;DHT22;17834;52.992;8.856;2024-02-28T14:54:00;8.90;99.90
31207;DHT22;17834;52.992;8.856;2024-02-28T14:56:26;8.90;99.90
31207;DHT22;17834;52.992;8.856;2024-02-28T14:58:54;8.90;99.90
31207;DHT22;17834;52.992;8.856;2024-02-28T15:01:19;8.90;99.90
31207;DHT22;17834;52.992;8.856;2024-02-28T15:03:45;8.90;99.90
31207;DHT22;17834;52.992;8.856;2024-02-28T15:06:13;8.90;99.90
31207;DHT22;17834;52.992;8.856;2024-02-28T15:08:39;8.90;99.90
31207;DHT22;17834;52.992;8.856;2024-02-28T15:11:04;8.90;99.90
31207;DHT22;17834;52.992;8.856;2024-02-28T15:13:30;8.90;99.90
31207;DHT22;17834;52.992;8.856;2024-02-28T15:15:55;8.80;99.90
31207;DHT22;17834;52.992;8.856;2024-02-28T15:18:21;8.80;99.90
31207;DHT22;17834;52.992;8.856;2024-02-28T15:20:47;8.80;99.90
31207;DHT22;17834;52.992;8.856;2024-02-28T15:23:13;8.70;99.90
31207;DHT22;17834;52.992;8.856;2024-02-28T15:25:38;8.80;99.90
31207;DHT22;17834;52.992;8.856;2024-02-28T15:28:04;8.80;99.90
31207;DHT22;17834;52.992;8.856;2024-02-28T15:30:30;8.80;99.90
31207;DHT22;17834;52.992;8.856;2024-02-28T15:32:55;8.80;99.90
31207;DHT22;17834;52.992;8.856;2024-02-28T15:35:21;8.70;99.90
31207;DHT22;17834;52.992;8.856;2024-02-28T15:37:47;8.70;99.90